Time;durP1;ratioP1;P1;durP2;ratioP2;P2;SDS_P1;SDS_P2;PMS_P1;PMS_P2;Temp;Humidity;BMP_temperature;BMP_pressure;BME280_temperature;BME280_humidity;BME280_pressure;Samples;Min_cycle;Max_cycle;Signal;HPM_P1;HPM_P2
2023/08/23 00:00:56;;;;;;;;;;;;;;;;;;2218366;58;1851;-23
2023/08/23 00:03:27;;;;;;;;;;;;;;;;;;2217906;66;2188;-23
2023/08/23 00:05:57;;;;;;;;;;;;;;;;;;2213737;66;2718;-23
2023/08/23 00:08:28;;;;;;;;;;;;;;;;;;2215097;66;1762;-23
2023/08/23 00:10:58;;;;;;;;;;;;;;;;;;2214708;66;1859;-23
2023/08/23 00:13:28;;;;;;;;;;;;;;;;;;2218294;59;2602;-23
2023/08/23 00:15:58;;;;;;;;;;;;;;;;;;2217463;66;1876;-23
2023/08/23 00:18:28;;;;;;;;;;;;;;;;;;2219271;66;1760;-23
2023/08/23 00:21:02;;;;;;;;;;;;;;;;;;2218335;66;1887;-23
2023/08/23 00:23:32;;;;;;;;;;;;;;;;;;2217940;66;2045;-23
2023/08/23 00:26:03;;;;;;;;;;;;;;;;;;2217402;58;2654;-23
2023/08/23 00:28:33;;;;;;;;;;;;;;;;;;2217738;66;2226;-23
2023/08/23 00:31:03;;;;;;;;;;;;;;;;;;2217970;58;1300;-23
2023/08/23 00:33:33;;;;;;;;;;;;;;;;;;2218376;58;1294;-23
2023/08/23 00:36:04;;;;;;;;;;;;;;;;;;2218308;66;1284;-23
2023/08/23 00:38:34;;;;;;;;;;;;;;;;;;2218675;58;1317;-23
2023/08/23 00:41:04;;;;;;;;;;;;;;;;;;2218291;66;1520;-23
2023/08/23 00:43:34;;;;;;;;;;;;;;;;;;2218827;66;1393;-23
2023/08/23 00:46:05;;;;;;;;;;;;;;;;;;2217834;58;1988;-23
2023/08/23 00:48:35;;;;;;;;;;;;;;;;;;2219011;66;2090;-23
2023/08/23 00:51:05;;;;;;;;;;;;;;;;;;2218043;58;1643;-23
2023/08/23 00:53:36;;;;;;;;;;;;;;;;;;2214913;58;1388;-23
2023/08/23 00:56:06;;;;;;;;;;;;;;;;;;2214266;66;1251;-23
2023/08/23 00:58:37;;;;;;;;;;;;;;;;;;2218986;66;1563;-23
2023/08/23 01:01:07;;;;;;;;;;;;;;;;;;2218879;58;1199;-23
2023/08/23 01:03:37;;;;;;;;;;;;;;;;;;2216272;66;1726;-23
2023/08/23 01:06:21;;;;;;;;;;;;;;;;;;2217848;66;2102;-23
2023/08/23 01:09:06;;;;;;;;;;;;;;;;;;2214937;66;1916;-23
2023/08/23 01:12:00;;;;;;;;;;;;;;;;;;2218674;58;1532;-23
2023/08/23 01:14:37;;;;;;;;;;;;;;;;;;2216351;66;1483;-23
2023/08/23 01:17:09;;;;;;;;;;;;;;;;;;2217608;66;1174;-23
2023/08/23 01:19:46;;;;;;;;;;;;;;;;;;2218904;66;1473;-23
2023/08/23 01:22:18;;;;;;;;;;;;;;;;;;2214600;66;1238;-23
2023/08/23 01:24:49;;;;;;;;;;;;;;;;;;2217783;66;2041;-23
2023/08/23 01:27:19;;;;;;;;;;;;;;;;;;2217694;59;2254;-23
2023/08/23 01:29:49;;;;;;;;;;;;;;;;;;2218716;66;2688;-23
2023/08/23 01:32:38;;;;;;;;;;;;;;;;;;2218985;58;1937;-23
2023/08/23 01:35:19;;;;;;;;;;;;;;;;;;2218865;66;1759;-23
2023/08/23 01:37:52;;;;;;;;;;;;;;;;;;2218519;66;1970;-23
2023/08/23 01:40:23;;;;;;;;;;;;;;;;;;2214905;66;2305;-23
2023/08/23 01:42:54;;;;;;;;;;;;;;;;;;2218292;66;1783;-23
2023/08/23 01:45:24;;;;;;;;;;;;;;;;;;2218462;58;2416;-23
2023/08/23 01:47:54;;;;;;;;;;;;;;;;;;2219022;66;2001;-23
2023/08/23 01:50:24;;;;;;;;;;;;;;;;;;2218749;66;2280;-23
2023/08/23 01:52:55;;;;;;;;;;;;;;;;;;2218870;58;2031;-23
2023/08/23 01:55:25;;;;;;;;;;;;;;;;;;2219139;58;1886;-23
2023/08/23 01:57:55;;;;;;;;;;;;;;;;;;2215712;66;1341;-23
2023/08/23 02:00:26;;;;;;;;;;;;;;;;;;2218897;58;2007;-23
2023/08/23 02:02:56;;;;;;;;;;;;;;;;;;2218859;66;1762;-23
2023/08/23 02:05:29;;;;;;;;;;;;;;;;;;2218126;66;1937;-23
2023/08/23 02:07:59;;;;;;;;;;;;;;;;;;2218500;66;1782;-23
2023/08/23 02:10:29;;;;;;;;;;;;;;;;;;2217930;66;2871;-23
2023/08/23 02:12:59;;;;;;;;;;;;;;;;;;2218691;58;1743;-23
2023/08/23 02:15:30;;;;;;;;;;;;;;;;;;2218181;66;1978;-23
2023/08/23 02:18:00;;;;;;;;;;;;;;;;;;2218258;66;1833;-23
2023/08/23 02:20:30;;;;;;;;;;;;;;;;;;2214696;66;1934;-23
2023/08/23 02:23:00;;;;;;;;;;;;;;;;;;2218175;58;2056;-23
2023/08/23 02:25:31;;;;;;;;;;;;;;;;;;2218452;66;2079;-23
2023/08/23 02:28:01;;;;;;;;;;;;;;;;;;2216934;66;2647;-23
2023/08/23 02:30:31;;;;;;;;;;;;;;;;;;2217114;58;2456;-23
2023/08/23 02:33:01;;;;;;;;;;;;;;;;;;2214591;58;1495;-23
2023/08/23 02:35:31;;;;;;;;;;;;;;;;;;2214299;59;1852;-23
2023/08/23 02:38:02;;;;;;;;;;;;;;;;;;2214813;63;1769;-23
2023/08/23 02:40:32;;;;;;;;;;;;;;;;;;2217847;66;2493;-23
2023/08/23 02:43:02;;;;;;;;;;;;;;;;;;2217930;66;1862;-23
2023/08/23 02:45:32;;;;;;;;;;;;;;;;;;2217280;58;1934;-23
2023/08/23 02:48:02;;;;;;;;;;;;;;;;;;2217816;58;2011;-23
2023/08/23 02:50:33;;;;;;;;;;;;;;;;;;2217562;58;2593;-23
2023/08/23 02:53:03;;;;;;;;;;;;;;;;;;2217968;58;1861;-23
2023/08/23 02:55:34;;;;;;;;;;;;;;;;;;2217592;58;2828;-23
2023/08/23 02:58:04;;;;;;;;;;;;;;;;;;2215518;66;2159;-23
2023/08/23 03:00:35;;;;;;;;;;;;;;;;;;2214509;58;2394;-23
2023/08/23 03:03:05;;;;;;;;;;;;;;;;;;2217705;66;1942;-23
2023/08/23 03:05:35;;;;;;;;;;;;;;;;;;2218647;66;2075;-23
2023/08/23 03:08:05;;;;;;;;;;;;;;;;;;2219027;66;1910;-23
2023/08/23 03:10:36;;;;;;;;;;;;;;;;;;2215622;66;1866;-23
2023/08/23 03:13:06;;;;;;;;;;;;;;;;;;2214367;66;2212;-23
2023/08/23 03:15:36;;;;;;;;;;;;;;;;;;2218164;66;1883;-23
2023/08/23 03:18:06;;;;;;;;;;;;;;;;;;2218411;66;1510;-23
2023/08/23 03:20:37;;;;;;;;;;;;;;;;;;2218010;66;2326;-23
2023/08/23 03:23:07;;;;;;;;;;;;;;;;;;2214945;58;2097;-23
2023/08/23 03:25:37;;;;;;;;;;;;;;;;;;2218401;66;3229;-23
2023/08/23 03:28:07;;;;;;;;;;;;;;;;;;2218173;58;2323;-23
2023/08/23 03:30:37;;;;;;;;;;;;;;;;;;2216404;58;2777;-23
2023/08/23 03:33:08;;;;;;;;;;;;;;;;;;2217150;66;2028;-23
2023/08/23 03:35:38;;;;;;;;;;;;;;;;;;2218092;66;2120;-23
2023/08/23 03:38:08;;;;;;;;;;;;;;;;;;2218107;63;1681;-23
2023/08/23 03:40:39;;;;;;;;;;;;;;;;;;2218257;66;1745;-23
2023/08/23 03:43:09;;;;;;;;;;;;;;;;;;2217792;66;2592;-23
2023/08/23 03:45:48;;;;;;;;;;;;;;;;;;2219264;58;1927;-23
2023/08/23 03:48:19;;;;;;;;;;;;;;;;;;2219711;66;2772;-23
2023/08/23 03:50:49;;;;;;;;;;;;;;;;;;2219126;58;1739;-23
2023/08/23 03:53:19;;;;;;;;;;;;;;;;;;2218005;66;2195;-23
2023/08/23 03:55:53;;;;;;;;;;;;;;;;;;2217951;58;1755;-23
2023/08/23 03:58:24;;;;;;;;;;;;;;;;;;2218458;66;2273;-23
2023/08/23 04:00:57;;;;;;;;;;;;;;;;;;2217934;58;1955;-23
2023/08/23 04:03:30;;;;;;;;;;;;;;;;;;2217872;66;1885;-23
2023/08/23 04:06:03;;;;;;;;;;;;;;;;;;2218594;66;2070;-23
2023/08/23 04:08:33;;;;;;;;;;;;;;;;;;2217818;66;2624;-23
2023/08/23 04:11:03;;;;;;;;;;;;;;;;;;2213929;59;2021;-23
2023/08/23 04:13:34;;;;;;;;;;;;;;;;;;2218030;58;1836;-23
2023/08/23 04:16:04;;;;;;;;;;;;;;;;;;2217776;63;1807;-23
2023/08/23 04:18:34;;;;;;;;;;;;;;;;;;2218485;66;2497;-23
2023/08/23 04:21:04;;;;;;;;;;;;;;;;;;2218624;66;1697;-23
2023/08/23 04:23:34;;;;;;;;;;;;;;;;;;2218314;58;1845;-23
2023/08/23 04:26:05;;;;;;;;;;;;;;;;;;2217853;58;1951;-23
2023/08/23 04:28:37;;;;;;;;;;;;;;;;;;2218047;66;2106;-23
2023/08/23 04:31:07;;;;;;;;;;;;;;;;;;2217069;58;2858;-23
2023/08/23 04:33:37;;;;;;;;;;;;;;;;;;2217967;58;2219;-23
2023/08/23 04:36:07;;;;;;;;;;;;;;;;;;2217752;66;1807;-23
2023/08/23 04:38:38;;;;;;;;;;;;;;;;;;2217700;59;1659;-23
2023/08/23 04:41:08;;;;;;;;;;;;;;;;;;2218210;66;3417;-23
2023/08/23 04:43:38;;;;;;;;;;;;;;;;;;2214154;66;1760;-23
2023/08/23 04:46:08;;;;;;;;;;;;;;;;;;2217701;58;2043;-23
2023/08/23 04:48:38;;;;;;;;;;;;;;;;;;2217932;63;1937;-23
2023/08/23 04:51:09;;;;;;;;;;;;;;;;;;2214382;58;1638;-23
2023/08/23 04:53:39;;;;;;;;;;;;;;;;;;2218065;58;2094;-23
2023/08/23 04:56:09;;;;;;;;;;;;;;;;;;2217054;58;1605;-23
2023/08/23 04:58:40;;;;;;;;;;;;;;;;;;2218404;66;2544;-23
2023/08/23 05:01:13;;;;;;;;;;;;;;;;;;2217880;58;1854;-23
2023/08/23 05:03:44;;;;;;;;;;;;;;;;;;2218851;66;2646;-23
2023/08/23 05:06:14;;;;;;;;;;;;;;;;;;2218485;66;1982;-23
2023/08/23 05:08:44;;;;;;;;;;;;;;;;;;2218496;58;1518;-23
2023/08/23 05:11:15;;;;;;;;;;;;;;;;;;2218015;58;2038;-23
2023/08/23 05:13:45;;;;;;;;;;;;;;;;;;2218712;66;1939;-23
2023/08/23 05:16:15;;;;;;;;;;;;;;;;;;2218553;66;2509;-23
2023/08/23 05:18:45;;;;;;;;;;;;;;;;;;2215057;66;1784;-23
2023/08/23 05:21:15;;;;;;;;;;;;;;;;;;2215451;66;1876;-23
2023/08/23 05:23:46;;;;;;;;;;;;;;;;;;2218452;58;1890;-23
2023/08/23 05:26:16;;;;;;;;;;;;;;;;;;2218909;58;2105;-23
2023/08/23 05:28:46;;;;;;;;;;;;;;;;;;2219008;66;3487;-23
2023/08/23 05:31:16;;;;;;;;;;;;;;;;;;2218328;58;2448;-23
2023/08/23 05:33:46;;;;;;;;;;;;;;;;;;2219428;58;2192;-23
2023/08/23 05:36:17;;;;;;;;;;;;;;;;;;2215339;66;1743;-23
2023/08/23 05:38:49;;;;;;;;;;;;;;;;;;2217990;62;2872;-23
2023/08/23 05:41:19;;;;;;;;;;;;;;;;;;2214347;59;2449;-23
2023/08/23 05:43:49;;;;;;;;;;;;;;;;;;2218591;66;1402;-23
2023/08/23 05:46:20;;;;;;;;;;;;;;;;;;2218288;58;1936;-23
2023/08/23 05:48:50;;;;;;;;;;;;;;;;;;2219521;66;1730;-23
2023/08/23 05:51:21;;;;;;;;;;;;;;;;;;2215457;58;1768;-23
2023/08/23 05:53:51;;;;;;;;;;;;;;;;;;2218413;58;1790;-23
2023/08/23 05:56:22;;;;;;;;;;;;;;;;;;2217470;66;2741;-23
2023/08/23 05:58:53;;;;;;;;;;;;;;;;;;2219242;58;1826;-23
2023/08/23 06:01:23;;;;;;;;;;;;;;;;;;2214991;59;1784;-23
2023/08/23 06:03:53;;;;;;;;;;;;;;;;;;2218778;66;1784;-23
2023/08/23 06:06:23;;;;;;;;;;;;;;;;;;2214153;66;1935;-23
2023/08/23 06:08:53;;;;;;;;;;;;;;;;;;2215444;66;1756;-23
2023/08/23 06:11:24;;;;;;;;;;;;;;;;;;2214942;58;1868;-23
2023/08/23 06:13:55;;;;;;;;;;;;;;;;;;2218533;66;1762;-23
2023/08/23 06:16:25;;;;;;;;;;;;;;;;;;2218192;66;1881;-23
2023/08/23 06:18:55;;;;;;;;;;;;;;;;;;2218157;66;1809;-23
2023/08/23 06:21:25;;;;;;;;;;;;;;;;;;2218200;66;2641;-23
2023/08/23 06:23:55;;;;;;;;;;;;;;;;;;2218863;58;1800;-23
2023/08/23 06:26:26;;;;;;;;;;;;;;;;;;2218140;58;1948;-23
2023/08/23 06:28:56;;;;;;;;;;;;;;;;;;2218673;66;2104;-23
2023/08/23 06:31:26;;;;;;;;;;;;;;;;;;2215534;59;2297;-23
2023/08/23 06:33:56;;;;;;;;;;;;;;;;;;2218167;58;2464;-23
2023/08/23 06:36:27;;;;;;;;;;;;;;;;;;2217864;66;1765;-23
2023/08/23 06:38:57;;;;;;;;;;;;;;;;;;2218442;66;2489;-23
2023/08/23 06:41:27;;;;;;;;;;;;;;;;;;2214182;66;1880;-23
2023/08/23 06:43:58;;;;;;;;;;;;;;;;;;2214454;58;1840;-23
2023/08/23 06:46:29;;;;;;;;;;;;;;;;;;2218393;66;1951;-23
2023/08/23 06:48:59;;;;;;;;;;;;;;;;;;2218187;66;1777;-24
2023/08/23 06:51:30;;;;;;;;;;;;;;;;;;2218715;58;1965;-24
2023/08/23 06:54:00;;;;;;;;;;;;;;;;;;2218640;58;1990;-24
2023/08/23 06:56:31;;;;;;;;;;;;;;;;;;2217629;58;1807;-24
2023/08/23 06:59:01;;;;;;;;;;;;;;;;;;2218185;66;2023;-24
2023/08/23 07:01:31;;;;;;;;;;;;;;;;;;2218025;58;2010;-24
2023/08/23 07:04:01;;;;;;;;;;;;;;;;;;2218075;66;1743;-23
2023/08/23 07:06:35;;;;;;;;;;;;;;;;;;2214219;59;1936;-23
2023/08/23 07:09:06;;;;;;;;;;;;;;;;;;2217967;66;1831;-24
2023/08/23 07:11:36;;;;;;;;;;;;;;;;;;2218386;66;1834;-24
2023/08/23 07:14:08;;;;;;;;;;;;;;;;;;2218209;58;1945;-23
2023/08/23 07:16:38;;;;;;;;;;;;;;;;;;2218010;66;1936;-24
2023/08/23 07:19:09;;;;;;;;;;;;;;;;;;2213888;66;1790;-24
2023/08/23 07:21:39;;;;;;;;;;;;;;;;;;2218769;59;2376;-24
2023/08/23 07:24:10;;;;;;;;;;;;;;;;;;2217531;59;2493;-24
2023/08/23 07:26:40;;;;;;;;;;;;;;;;;;2218540;58;2882;-24
2023/08/23 07:29:15;;;;;;;;;;;;;;;;;;2217932;66;2499;-24
2023/08/23 07:31:45;;;;;;;;;;;;;;;;;;2218163;58;2822;-24
2023/08/23 07:34:16;;;;;;;;;;;;;;;;;;2217047;58;2262;-24
2023/08/23 07:36:46;;;;;;;;;;;;;;;;;;2217559;66;2106;-24
2023/08/23 07:39:16;;;;;;;;;;;;;;;;;;2218779;66;2458;-24
2023/08/23 07:41:47;;;;;;;;;;;;;;;;;;2218687;66;1935;-24
2023/08/23 07:44:20;;;;;;;;;;;;;;;;;;2217900;59;1994;-24
2023/08/23 07:46:50;;;;;;;;;;;;;;;;;;2218140;66;2164;-24
2023/08/23 07:49:20;;;;;;;;;;;;;;;;;;2213551;58;1869;-24
2023/08/23 07:51:51;;;;;;;;;;;;;;;;;;2218365;58;2375;-24
2023/08/23 07:54:21;;;;;;;;;;;;;;;;;;2212864;59;1986;-18
2023/08/23 07:56:52;;;;;;;;;;;;;;;;;;2208517;59;1848;-20
2023/08/23 07:59:25;;;;;;;;;;;;;;;;;;2210571;66;2248;-21
2023/08/23 08:01:55;;;;;;;;;;;;;;;;;;2210187;59;1769;-21
2023/08/23 08:04:26;;;;;;;;;;;;;;;;;;2211087;66;2229;-21
2023/08/23 08:06:56;;;;;;;;;;;;;;;;;;2210447;66;1602;-21
2023/08/23 08:09:26;;;;;;;;;;;;;;;;;;2211350;66;1500;-21
2023/08/23 08:11:56;;;;;;;;;;;;;;;;;;2211220;59;2827;-21
2023/08/23 08:14:27;;;;;;;;;;;;;;;;;;2211725;59;1734;-23
2023/08/23 08:16:57;;;;;;;;;;;;;;;;;;2210976;66;1661;-21
2023/08/23 08:19:28;;;;;;;;;;;;;;;;;;2209893;67;1688;-22
2023/08/23 08:21:58;;;;;;;;;;;;;;;;;;2211077;66;2225;-21
2023/08/23 08:24:28;;;;;;;;;;;;;;;;;;2211555;66;1937;-21
2023/08/23 08:26:59;;;;;;;;;;;;;;;;;;2211090;59;3562;-22
2023/08/23 08:29:29;;;;;;;;;;;;;;;;;;2208676;67;2240;-21
2023/08/23 08:31:59;;;;;;;;;;;;;;;;;;2209061;59;1352;-21
2023/08/23 08:34:30;;;;;;;;;;;;;;;;;;2209865;59;2396;-21
2023/08/23 08:37:00;;;;;;;;;;;;;;;;;;2210884;66;1725;-23
2023/08/23 08:39:30;;;;;;;;;;;;;;;;;;2211532;66;1521;-23
2023/08/23 08:42:00;;;;;;;;;;;;;;;;;;2208253;67;1989;-23
2023/08/23 08:44:31;;;;;;;;;;;;;;;;;;2208429;59;2194;-23
2023/08/23 08:47:01;;;;;;;;;;;;;;;;;;2211366;66;1758;-23
2023/08/23 08:49:31;;;;;;;;;;;;;;;;;;2211797;58;1809;-23
2023/08/23 08:52:03;;;;;;;;;;;;;;;;;;2210817;59;2395;-23
2023/08/23 08:54:34;;;;;;;;;;;;;;;;;;2210719;59;1772;-23
2023/08/23 08:57:04;;;;;;;;;;;;;;;;;;2211271;59;1797;-23
2023/08/23 08:59:35;;;;;;;;;;;;;;;;;;2211476;66;1995;-23
2023/08/23 09:02:08;;;;;;;;;;;;;;;;;;2211646;59;1900;-23
2023/08/23 09:04:39;;;;;;;;;;;;;;;;;;2211824;66;1944;-23
2023/08/23 09:07:09;;;;;;;;;;;;;;;;;;2211583;66;1571;-23
2023/08/23 09:09:40;;;;;;;;;;;;;;;;;;2212539;66;1416;-23
2023/08/23 09:12:10;;;;;;;;;;;;;;;;;;2212477;59;1647;-23
2023/08/23 09:14:41;;;;;;;;;;;;;;;;;;2212909;66;1349;-23
2023/08/23 09:17:11;;;;;;;;;;;;;;;;;;2213826;66;1853;-23
2023/08/23 09:19:42;;;;;;;;;;;;;;;;;;2211357;67;1732;-23
2023/08/23 09:22:18;;;;;;;;;;;;;;;;;;2211369;66;1372;-23
2023/08/23 09:24:51;;;;;;;;;;;;;;;;;;2211910;66;1944;-23
2023/08/23 09:27:24;;;;;;;;;;;;;;;;;;2211514;66;1750;-23
2023/08/23 09:29:54;;;;;;;;;;;;;;;;;;2212081;66;1320;-23
2023/08/23 09:32:28;;;;;;;;;;;;;;;;;;2208935;59;1281;-23
2023/08/23 09:35:08;;;;;;;;;;;;;;;;;;2211964;66;2453;-23
2023/08/23 09:37:41;;;;;;;;;;;;;;;;;;2209606;59;2503;-23
2023/08/23 09:40:15;;;;;;;;;;;;;;;;;;2212620;66;1143;-23
2023/08/23 09:42:46;;;;;;;;;;;;;;;;;;2209536;67;1329;-23
2023/08/23 09:45:21;;;;;;;;;;;;;;;;;;2209882;59;1928;-21
2023/08/23 09:47:55;;;;;;;;;;;;;;;;;;2212551;66;1157;-21
2023/08/23 09:50:25;;;;;;;;;;;;;;;;;;2213364;59;1914;-19
2023/08/23 09:53:07;;;;;;;;;;;;;;;;;;2209919;59;1633;-19
2023/08/23 09:55:39;;;;;;;;;;;;;;;;;;2213061;59;1273;-19
2023/08/23 09:58:09;;;;;;;;;;;;;;;;;;2212911;66;1673;-19
2023/08/23 10:00:39;;;;;;;;;;;;;;;;;;2212680;59;1455;-19
2023/08/23 10:03:09;;;;;;;;;;;;;;;;;;2212561;66;1699;-19
2023/08/23 10:05:41;;;;;;;;;;;;;;;;;;2209278;66;1987;-19
2023/08/23 10:08:12;;;;;;;;;;;;;;;;;;2211939;66;1666;-21
2023/08/23 10:10:43;;;;;;;;;;;;;;;;;;2209572;66;1600;-21
2023/08/23 10:13:13;;;;;;;;;;;;;;;;;;2212586;59;1330;-21
2023/08/23 10:15:44;;;;;;;;;;;;;;;;;;2212557;66;1874;-21
2023/08/23 10:18:15;;;;;;;;;;;;;;;;;;2210168;59;2102;-21
2023/08/23 10:20:45;;;;;;;;;;;;;;;;;;2213397;66;1339;-21
2023/08/23 10:23:16;;;;;;;;;;;;;;;;;;2212219;66;1345;-21
2023/08/23 10:25:46;;;;;;;;;;;;;;;;;;2212366;59;2234;-21
2023/08/23 10:28:18;;;;;;;;;;;;;;;;;;2212172;66;1673;-22
2023/08/23 10:30:54;;;;;;;;;;;;;;;;;;2212739;59;1736;-21
2023/08/23 10:33:24;;;;;;;;;;;;;;;;;;2212171;59;1831;-21
2023/08/23 10:35:58;;;;;;;;;;;;;;;;;;2208252;66;2838;-22
2023/08/23 10:38:29;;;;;;;;;;;;;;;;;;2211589;66;2675;-21
2023/08/23 10:40:59;;;;;;;;;;;;;;;;;;2212365;59;1914;-22
2023/08/23 10:43:30;;;;;;;;;;;;;;;;;;2212662;66;2200;-21
2023/08/23 10:46:06;;;;;;;;;;;;;;;;;;2209334;59;1946;-21
2023/08/23 10:48:37;;;;;;;;;;;;;;;;;;2213197;59;1568;-21
2023/08/23 10:51:08;;;;;;;;;;;;;;;;;;2211882;59;1634;-22
2023/08/23 10:53:39;;;;;;;;;;;;;;;;;;2211989;59;1631;-21
2023/08/23 10:56:10;;;;;;;;;;;;;;;;;;2211725;66;2218;-22
2023/08/23 10:58:43;;;;;;;;;;;;;;;;;;2212269;67;1773;-22
2023/08/23 11:01:14;;;;;;;;;;;;;;;;;;2212100;59;1796;-22
2023/08/23 11:03:44;;;;;;;;;;;;;;;;;;2212296;66;1682;-22
2023/08/23 11:06:14;;;;;;;;;;;;;;;;;;2211507;66;1932;-20
2023/08/23 11:08:45;;;;;;;;;;;;;;;;;;2212390;66;1153;-19
2023/08/23 11:11:16;;;;;;;;;;;;;;;;;;2211656;66;2190;-19
2023/08/23 11:13:46;;;;;;;;;;;;;;;;;;2211820;59;1769;-19
2023/08/23 11:16:16;;;;;;;;;;;;;;;;;;2209160;66;1690;-20
2023/08/23 11:18:46;;;;;;;;;;;;;;;;;;2212241;66;1582;-20
2023/08/23 11:21:17;;;;;;;;;;;;;;;;;;2212254;66;1219;-20
2023/08/23 11:23:47;;;;;;;;;;;;;;;;;;2208391;59;1249;-20
2023/08/23 11:26:17;;;;;;;;;;;;;;;;;;2212579;59;1945;-19
2023/08/23 11:28:48;;;;;;;;;;;;;;;;;;2211863;66;2107;-20
2023/08/23 11:31:20;;;;;;;;;;;;;;;;;;2212967;59;1185;-20
2023/08/23 11:33:51;;;;;;;;;;;;;;;;;;2208324;59;1287;-19
2023/08/23 11:36:21;;;;;;;;;;;;;;;;;;2211159;59;2915;-19
2023/08/23 11:38:52;;;;;;;;;;;;;;;;;;2207592;67;2526;-19
2023/08/23 11:41:27;;;;;;;;;;;;;;;;;;2208708;59;1970;-19
2023/08/23 11:43:57;;;;;;;;;;;;;;;;;;2211909;66;1715;-19
2023/08/23 11:46:27;;;;;;;;;;;;;;;;;;2208829;59;1931;-19
2023/08/23 11:48:57;;;;;;;;;;;;;;;;;;2209130;67;1631;-19
2023/08/23 11:51:35;;;;;;;;;;;;;;;;;;2210503;59;1401;-19
2023/08/23 11:54:06;;;;;;;;;;;;;;;;;;2210554;59;1583;-19
2023/08/23 11:56:45;;;;;;;;;;;;;;;;;;2212557;59;1616;-19
2023/08/23 11:59:16;;;;;;;;;;;;;;;;;;2212113;66;1622;-19
2023/08/23 12:01:46;;;;;;;;;;;;;;;;;;2212453;59;1916;-21
2023/08/23 12:04:22;;;;;;;;;;;;;;;;;;2212120;67;1861;-21
2023/08/23 12:06:53;;;;;;;;;;;;;;;;;;2211489;66;1444;-21
2023/08/23 12:09:25;;;;;;;;;;;;;;;;;;2212022;67;1948;-21
2023/08/23 12:11:59;;;;;;;;;;;;;;;;;;2212333;59;2010;-21
2023/08/23 12:14:29;;;;;;;;;;;;;;;;;;2212406;67;1583;-21
2023/08/23 12:17:00;;;;;;;;;;;;;;;;;;2212712;66;1638;-22
2023/08/23 12:19:35;;;;;;;;;;;;;;;;;;2212601;67;1589;-21
2023/08/23 12:22:09;;;;;;;;;;;;;;;;;;2212811;67;1617;-22
2023/08/23 12:24:41;;;;;;;;;;;;;;;;;;2209822;67;1945;-21
2023/08/23 12:27:11;;;;;;;;;;;;;;;;;;2211933;67;1284;-21
2023/08/23 12:29:42;;;;;;;;;;;;;;;;;;2212517;59;1302;-21
2023/08/23 12:32:12;;;;;;;;;;;;;;;;;;2212596;59;1401;-21
2023/08/23 12:34:42;;;;;;;;;;;;;;;;;;2212144;67;1442;-21
2023/08/23 12:37:12;;;;;;;;;;;;;;;;;;2208684;59;2887;-21
2023/08/23 12:39:43;;;;;;;;;;;;;;;;;;2211906;59;2511;-21
2023/08/23 12:42:13;;;;;;;;;;;;;;;;;;2211930;67;1875;-21
2023/08/23 12:44:43;;;;;;;;;;;;;;;;;;2212198;59;1939;-21
2023/08/23 12:47:13;;;;;;;;;;;;;;;;;;2211872;66;2002;-21
2023/08/23 12:49:44;;;;;;;;;;;;;;;;;;2212543;59;1755;-21
2023/08/23 12:52:14;;;;;;;;;;;;;;;;;;2211669;59;1425;-21
2023/08/23 12:54:44;;;;;;;;;;;;;;;;;;2211623;59;1234;-21
2023/08/23 12:57:14;;;;;;;;;;;;;;;;;;2208404;59;1520;-21
2023/08/23 12:59:45;;;;;;;;;;;;;;;;;;2209936;59;1674;-21
2023/08/23 13:02:15;;;;;;;;;;;;;;;;;;2209389;59;1809;-21
2023/08/23 13:04:46;;;;;;;;;;;;;;;;;;2211886;67;1944;-21
2023/08/23 13:07:16;;;;;;;;;;;;;;;;;;2208935;59;1906;-20
2023/08/23 13:09:47;;;;;;;;;;;;;;;;;;2211940;59;2064;-21
2023/08/23 13:12:17;;;;;;;;;;;;;;;;;;2209230;59;2067;-20
2023/08/23 13:14:47;;;;;;;;;;;;;;;;;;2212641;66;1555;-21
2023/08/23 13:17:17;;;;;;;;;;;;;;;;;;2209565;67;2211;-20
2023/08/23 13:19:47;;;;;;;;;;;;;;;;;;2208809;66;1227;-21
2023/08/23 13:22:18;;;;;;;;;;;;;;;;;;2209560;66;1272;-21
2023/08/23 13:24:49;;;;;;;;;;;;;;;;;;2213417;66;1935;-20
2023/08/23 13:27:19;;;;;;;;;;;;;;;;;;2213553;59;1750;-20
2023/08/23 13:29:49;;;;;;;;;;;;;;;;;;2210414;66;1618;-20
2023/08/23 13:32:20;;;;;;;;;;;;;;;;;;2212693;59;1835;-20
2023/08/23 13:34:51;;;;;;;;;;;;;;;;;;2213408;66;1218;-20
2023/08/23 13:37:21;;;;;;;;;;;;;;;;;;2212746;66;1245;-21
2023/08/23 13:39:51;;;;;;;;;;;;;;;;;;2211959;59;2245;-20
2023/08/23 13:42:21;;;;;;;;;;;;;;;;;;2212701;66;1829;-20
2023/08/23 13:44:52;;;;;;;;;;;;;;;;;;2212945;59;1992;-20
2023/08/23 13:47:22;;;;;;;;;;;;;;;;;;2212894;66;1930;-21
2023/08/23 13:49:52;;;;;;;;;;;;;;;;;;2213203;59;1849;-20
2023/08/23 13:52:22;;;;;;;;;;;;;;;;;;2213445;59;1842;-20
2023/08/23 13:54:52;;;;;;;;;;;;;;;;;;2209879;59;2044;-20
2023/08/23 13:57:24;;;;;;;;;;;;;;;;;;2210275;59;1995;-20
2023/08/23 13:59:54;;;;;;;;;;;;;;;;;;2210332;59;1655;-20
2023/08/23 14:02:24;;;;;;;;;;;;;;;;;;2213231;66;1745;-20
2023/08/23 14:04:54;;;;;;;;;;;;;;;;;;2212922;66;1983;-20
2023/08/23 14:07:25;;;;;;;;;;;;;;;;;;2212996;59;1960;-20
2023/08/23 14:09:56;;;;;;;;;;;;;;;;;;2213048;66;1944;-21
2023/08/23 14:12:26;;;;;;;;;;;;;;;;;;2213094;59;2024;-20
2023/08/23 14:14:56;;;;;;;;;;;;;;;;;;2212446;66;1987;-20
2023/08/23 14:17:27;;;;;;;;;;;;;;;;;;2209329;66;2042;-20
2023/08/23 14:19:57;;;;;;;;;;;;;;;;;;2209960;66;1803;-20
2023/08/23 14:22:28;;;;;;;;;;;;;;;;;;2209453;67;1909;-23
2023/08/23 14:24:58;;;;;;;;;;;;;;;;;;2211568;66;1941;-23
2023/08/23 14:27:28;;;;;;;;;;;;;;;;;;2212118;59;1743;-23
2023/08/23 14:29:59;;;;;;;;;;;;;;;;;;2209330;67;2036;-23
2023/08/23 14:32:29;;;;;;;;;;;;;;;;;;2211693;59;2251;-23
2023/08/23 14:34:59;;;;;;;;;;;;;;;;;;2211095;59;2121;-22
2023/08/23 14:37:29;;;;;;;;;;;;;;;;;;2208150;67;1842;-23
2023/08/23 14:40:00;;;;;;;;;;;;;;;;;;2210530;59;2679;-23
2023/08/23 14:42:30;;;;;;;;;;;;;;;;;;2212463;59;2967;-23
2023/08/23 14:45:04;;;;;;;;;;;;;;;;;;2211428;59;1941;-23
2023/08/23 14:47:35;;;;;;;;;;;;;;;;;;2211191;66;2679;-23
2023/08/23 14:50:06;;;;;;;;;;;;;;;;;;2212025;59;1681;-23
2023/08/23 14:52:36;;;;;;;;;;;;;;;;;;2209149;59;1435;-23
2023/08/23 14:55:08;;;;;;;;;;;;;;;;;;2212034;59;1921;-23
2023/08/23 14:57:38;;;;;;;;;;;;;;;;;;2208847;59;1984;-23
2023/08/23 15:00:08;;;;;;;;;;;;;;;;;;2211159;59;1726;-23
2023/08/23 15:02:38;;;;;;;;;;;;;;;;;;2211391;66;1863;-23
2023/08/23 15:05:09;;;;;;;;;;;;;;;;;;2207999;66;2160;-23
2023/08/23 15:07:39;;;;;;;;;;;;;;;;;;2211704;66;1809;-23
2023/08/23 15:10:09;;;;;;;;;;;;;;;;;;2207848;66;1842;-23
2023/08/23 15:12:39;;;;;;;;;;;;;;;;;;2212146;59;1526;-23
2023/08/23 15:15:10;;;;;;;;;;;;;;;;;;2210978;66;1472;-21
2023/08/23 15:17:40;;;;;;;;;;;;;;;;;;2212019;66;1251;-21
2023/08/23 15:20:13;;;;;;;;;;;;;;;;;;2210744;66;1372;-21
2023/08/23 15:22:44;;;;;;;;;;;;;;;;;;2212103;66;1797;-21
2023/08/23 15:25:14;;;;;;;;;;;;;;;;;;2207503;66;2000;-21
2023/08/23 15:27:44;;;;;;;;;;;;;;;;;;2208064;59;1442;-21
2023/08/23 15:30:15;;;;;;;;;;;;;;;;;;2208146;59;1323;-21
2023/08/23 15:32:45;;;;;;;;;;;;;;;;;;2208990;59;1635;-21
2023/08/23 15:35:15;;;;;;;;;;;;;;;;;;2211776;66;1262;-21
2023/08/23 15:37:47;;;;;;;;;;;;;;;;;;2206222;67;1472;-21
2023/08/23 15:40:17;;;;;;;;;;;;;;;;;;2211317;66;2409;-21
2023/08/23 15:42:47;;;;;;;;;;;;;;;;;;2211381;59;2545;-21
2023/08/23 15:45:18;;;;;;;;;;;;;;;;;;2211693;59;1928;-21
2023/08/23 15:47:48;;;;;;;;;;;;;;;;;;2211479;66;1779;-21
2023/08/23 15:50:19;;;;;;;;;;;;;;;;;;2207436;59;2035;-21
2023/08/23 15:52:49;;;;;;;;;;;;;;;;;;2210989;59;2120;-21
2023/08/23 15:55:19;;;;;;;;;;;;;;;;;;2210928;59;2776;-21
2023/08/23 15:57:49;;;;;;;;;;;;;;;;;;2207903;67;2176;-21
2023/08/23 16:00:21;;;;;;;;;;;;;;;;;;2211279;59;1699;-21
2023/08/23 16:02:52;;;;;;;;;;;;;;;;;;2208119;66;2128;-21
2023/08/23 16:05:22;;;;;;;;;;;;;;;;;;2211166;66;2032;-21
2023/08/23 16:07:52;;;;;;;;;;;;;;;;;;2208311;66;1328;-21
2023/08/23 16:10:22;;;;;;;;;;;;;;;;;;2211487;66;1368;-21
2023/08/23 16:12:53;;;;;;;;;;;;;;;;;;2211438;59;1709;-21
2023/08/23 16:15:23;;;;;;;;;;;;;;;;;;2211141;66;1663;-21
2023/08/23 16:17:53;;;;;;;;;;;;;;;;;;2211291;66;1094;-20
2023/08/23 16:20:23;;;;;;;;;;;;;;;;;;2211158;66;1261;-21
2023/08/23 16:22:53;;;;;;;;;;;;;;;;;;2211933;66;1662;-21
2023/08/23 16:25:24;;;;;;;;;;;;;;;;;;2211066;66;1932;-21
2023/08/23 16:27:54;;;;;;;;;;;;;;;;;;2211455;59;1654;-21
2023/08/23 16:30:24;;;;;;;;;;;;;;;;;;2211509;59;1353;-21
2023/08/23 16:32:54;;;;;;;;;;;;;;;;;;2211197;66;1241;-21
2023/08/23 16:35:25;;;;;;;;;;;;;;;;;;2211179;66;1547;-21
2023/08/23 16:37:55;;;;;;;;;;;;;;;;;;2208437;66;1220;-21
2023/08/23 16:40:26;;;;;;;;;;;;;;;;;;2211468;66;2649;-21
2023/08/23 16:42:56;;;;;;;;;;;;;;;;;;2210330;59;2323;-20
2023/08/23 16:45:26;;;;;;;;;;;;;;;;;;2212355;59;2983;-20
2023/08/23 16:47:57;;;;;;;;;;;;;;;;;;2211765;66;1387;-21
2023/08/23 16:50:30;;;;;;;;;;;;;;;;;;2211041;59;1856;-21
2023/08/23 16:53:00;;;;;;;;;;;;;;;;;;2210095;59;1807;-21
2023/08/23 16:55:38;;;;;;;;;;;;;;;;;;2211765;59;2170;-20
2023/08/23 16:58:09;;;;;;;;;;;;;;;;;;2212267;66;2132;-20
2023/08/23 17:00:39;;;;;;;;;;;;;;;;;;2212776;59;2207;-21
2023/08/23 17:03:09;;;;;;;;;;;;;;;;;;2212006;66;2374;-20
2023/08/23 17:05:39;;;;;;;;;;;;;;;;;;2208954;67;1922;-20
2023/08/23 17:08:09;;;;;;;;;;;;;;;;;;2211469;66;2161;-20
2023/08/23 17:10:40;;;;;;;;;;;;;;;;;;2212730;66;2042;-20
2023/08/23 17:13:10;;;;;;;;;;;;;;;;;;2212106;59;1946;-20
2023/08/23 17:15:40;;;;;;;;;;;;;;;;;;2212700;66;1594;-20
2023/08/23 17:18:14;;;;;;;;;;;;;;;;;;2212363;66;1199;-20
2023/08/23 17:20:44;;;;;;;;;;;;;;;;;;2212668;66;1125;-20
2023/08/23 17:23:17;;;;;;;;;;;;;;;;;;2211903;66;1392;-20
2023/08/23 17:25:47;;;;;;;;;;;;;;;;;;2208993;59;1917;-20
2023/08/23 17:28:17;;;;;;;;;;;;;;;;;;2208062;66;1514;-21